Hana Airport Hana US
ICAO: PHHN
IATA:
Category: Medium
Scheduled Services:

Elevation: 78 ft
TransAlt. 0 ft.

Airport Communications:
HONOLULU CNTR:126
CTAF:122.9
HANA:122.3
HANA:122.3
HONOLULU RDO:122.3

PHHN Zoom In..

Runways:

(A) RW 08 length 3606 ft width 100 ft
---- / hdg 79

(B) RW 26 length 3606 ft width 100 ft
---- / hdg 259

Location; PHHN
Day. 26 / Time. 23.00 Zulu
* Altimeter: 30.08
* Temperature: 29° c. 84.2°f.
* Wind from: 070° Speed 07 kn.
Dewpoint: 21° c.
Visibility: 10 Statute Miles.
Clouds: Few 2800 ft.
Clouds: Few 3400 ft.

PHHN 262300Z 07007KT 10SM FEW028 FEW034 29/21 A3008

Going to: --> -->


Wind From 070°
Speed 07 kn.

 
 
jpsmedia worldairports.se 2020   terms of use